Time;durP1;ratioP1;P1;durP2;ratioP2;P2;SDS_P1;SDS_P2;PMS_P1;PMS_P2;Temp;Humidity;BMP_temperature;BMP_pressure;BME280_temperature;BME280_humidity;BME280_pressure;Samples;Min_cycle;Max_cycle;Signal;HPM_P1;HPM_P2
2023/10/13 00:00:29;;;;;;;11.60;6.97;;;18.20;99.90;;;;;;4997126;28;20496;-65
2023/10/13 00:03:00;;;;;;;16.60;5.93;;;18.20;99.90;;;;;;4988691;28;20477;-66
2023/10/13 00:05:31;;;;;;;18.33;6.50;;;18.20;99.90;;;;;;4999534;28;20516;-68
2023/10/13 00:08:00;;;;;;;14.10;6.07;;;18.10;99.90;;;;;;4997788;28;20472;-68
2023/10/13 00:10:28;;;;;;;31.33;6.93;;;18.10;99.90;;;;;;4997261;28;20494;-69
2023/10/13 00:13:05;;;;;;;8.63;6.00;;;18.10;99.90;;;;;;4987851;28;20664;-69
2023/10/13 00:15:38;;;;;;;25.57;7.40;;;18.00;99.90;;;;;;4999265;28;20469;-65
2023/10/13 00:18:12;;;;;;;13.07;5.10;;;18.00;99.90;;;;;;4997217;28;21506;-65
2023/10/13 00:20:48;;;;;;;10.00;6.20;;;18.00;99.90;;;;;;4994986;28;20486;-66
2023/10/13 00:23:16;;;;;;;13.47;7.50;;;18.00;99.90;;;;;;5009076;28;21020;-65
2023/10/13 00:25:49;;;;;;;13.47;6.90;;;17.90;99.90;;;;;;4992573;28;20481;-65
2023/10/13 00:28:23;;;;;;;10.10;6.13;;;17.80;99.90;;;;;;5019907;28;20552;-66
2023/10/13 00:30:52;;;;;;;11.53;6.57;;;17.70;99.90;;;;;;5003479;28;20492;-66
2023/10/13 00:33:21;;;;;;;8.93;5.90;;;17.60;99.90;;;;;;4997337;28;20621;-66
2023/10/13 00:35:51;;;;;;;21.03;6.07;;;17.70;99.90;;;;;;4989916;28;20478;-69
2023/10/13 00:38:19;;;;;;;8.60;5.53;;;17.60;99.90;;;;;;5025678;28;21030;-68
2023/10/13 00:40:52;;;;;;;20.77;5.50;;;17.60;99.90;;;;;;5021077;28;20542;-69
2023/10/13 00:43:35;;;;;;;10.63;5.40;;;17.60;99.90;;;;;;4987501;28;20481;-69
2023/10/13 00:46:12;;;;;;;20.20;6.90;;;17.60;99.90;;;;;;5003193;28;20479;-68
2023/10/13 00:48:51;;;;;;;7.40;5.57;;;17.60;99.90;;;;;;5009052;28;20609;-68
2023/10/13 00:51:32;;;;;;;6.77;5.30;;;17.60;99.90;;;;;;4997289;28;21092;-69
2023/10/13 00:54:00;;;;;;;10.93;5.77;;;17.50;99.90;;;;;;4999277;28;20469;-69
2023/10/13 00:56:27;;;;;;;48.83;7.80;;;17.50;99.90;;;;;;5001887;28;21043;-68
2023/10/13 00:58:55;;;;;;;13.40;5.13;;;17.50;99.90;;;;;;4999454;28;20983;-69
2023/10/13 01:01:21;;;;;;;13.50;5.63;;;17.50;99.90;;;;;;4997717;28;20571;-69
2023/10/13 01:03:55;;;;;;;12.77;5.53;;;17.30;99.90;;;;;;4999919;28;20595;-68
2023/10/13 01:06:27;;;;;;;10.80;5.20;;;17.10;99.90;;;;;;4989111;28;20489;-66
2023/10/13 01:09:10;;;;;;;9.10;5.40;;;17.00;99.90;;;;;;4989169;28;21011;-66
2023/10/13 01:11:37;;;;;;;6.33;5.07;;;17.00;99.90;;;;;;4999324;28;20481;-66
2023/10/13 01:14:06;;;;;;;10.10;5.60;;;17.00;99.90;;;;;;5005905;28;20472;-66
2023/10/13 01:16:32;;;;;;;10.70;5.13;;;17.00;99.90;;;;;;5014060;28;20991;-66
2023/10/13 01:19:04;;;;;;;8.53;5.80;;;17.00;99.90;;;;;;5014985;28;20495;-66
2023/10/13 01:21:33;;;;;;;8.80;4.70;;;17.00;99.90;;;;;;5014179;28;20512;-66
2023/10/13 01:24:07;;;;;;;19.93;5.27;;;17.00;99.90;;;;;;5015535;28;20972;-66
2023/10/13 01:26:38;;;;;;;7.90;6.00;;;17.00;99.90;;;;;;5017181;28;20875;-66
2023/10/13 01:29:14;;;;;;;6.83;4.53;;;17.00;99.90;;;;;;5019158;28;20563;-66
2023/10/13 01:31:45;;;;;;;16.97;5.40;;;17.10;99.90;;;;;;5017264;28;20641;-66
2023/10/13 01:34:14;;;;;;;17.60;5.77;;;17.10;99.90;;;;;;5021775;28;20483;-66
2023/10/13 01:36:40;;;;;;;8.27;4.90;;;17.00;99.90;;;;;;5025354;28;20505;-65
2023/10/13 01:39:10;;;;;;;9.53;5.80;;;17.10;99.90;;;;;;5017874;28;21137;-66
2023/10/13 01:41:38;;;;;;;13.80;5.60;;;17.10;99.90;;;;;;5020304;28;20491;-66
2023/10/13 01:44:06;;;;;;;13.67;6.60;;;17.00;99.90;;;;;;5021737;28;20834;-65
2023/10/13 01:46:32;;;;;;;10.07;6.37;;;17.00;99.90;;;;;;5017781;28;20801;-66
2023/10/13 01:48:59;;;;;;;6.47;4.57;;;17.00;99.90;;;;;;5022119;28;20486;-66
2023/10/13 01:51:27;;;;;;;14.10;4.57;;;17.00;99.90;;;;;;5018118;28;20499;-65
2023/10/13 01:53:57;;;;;;;17.40;5.20;;;17.00;99.90;;;;;;5017605;28;20484;-65
2023/10/13 01:56:29;;;;;;;15.43;5.43;;;17.00;99.90;;;;;;5017800;28;20479;-66
2023/10/13 01:58:56;;;;;;;15.07;5.67;;;;;;;;;;5020163;28;20486;-65
2023/10/13 02:01:28;;;;;;;10.57;5.17;;;16.90;99.90;;;;;;5017235;28;20913;-66
2023/10/13 02:04:03;;;;;;;10.47;5.00;;;16.90;99.90;;;;;;5023169;28;20473;-66
2023/10/13 02:06:32;;;;;;;9.60;5.27;;;16.80;99.90;;;;;;5019453;28;20538;-65
2023/10/13 02:09:10;;;;;;;14.33;7.30;;;16.70;99.90;;;;;;5020497;28;20552;-66
2023/10/13 02:11:38;;;;;;;7.97;5.43;;;16.60;99.90;;;;;;5009623;28;21576;-66
2023/10/13 02:14:05;;;;;;;10.50;5.53;;;16.40;99.90;;;;;;4996920;28;21151;-66
2023/10/13 02:16:31;;;;;;;11.50;6.00;;;16.40;99.90;;;;;;5013708;28;20480;-66
2023/10/13 02:19:03;;;;;;;16.23;5.20;;;16.40;99.90;;;;;;5020618;28;20485;-66
2023/10/13 02:21:31;;;;;;;14.77;5.50;;;16.40;99.90;;;;;;5018748;28;20845;-66
2023/10/13 02:24:03;;;;;;;8.30;6.00;;;16.30;99.90;;;;;;5012365;28;20508;-67
2023/10/13 02:26:31;;;;;;;16.43;5.60;;;16.30;99.90;;;;;;5022932;28;20473;-65
2023/10/13 02:29:07;;;;;;;8.17;5.23;;;16.30;99.90;;;;;;5011762;28;21351;-66
2023/10/13 02:31:35;;;;;;;9.67;5.40;;;16.30;99.90;;;;;;5044366;28;20492;-66
2023/10/13 02:34:06;;;;;;;8.60;5.00;;;16.10;99.90;;;;;;5033383;28;20467;-65
2023/10/13 02:36:36;;;;;;;6.50;4.77;;;16.10;99.90;;;;;;5017770;28;20922;-68
2023/10/13 02:39:07;;;;;;;8.43;5.57;;;16.10;99.90;;;;;;5035737;28;20476;-70
2023/10/13 02:41:36;;;;;;;8.20;5.30;;;16.20;99.90;;;;;;5020540;28;20556;-69
2023/10/13 02:44:07;;;;;;;12.07;4.77;;;16.30;99.90;;;;;;5019998;28;20475;-70
2023/10/13 02:46:36;;;;;;;39.50;6.57;;;16.50;99.90;;;;;;5016325;28;20486;-68
2023/10/13 02:49:10;;;;;;;8.07;4.80;;;16.50;99.90;;;;;;5021094;28;20476;-69
2023/10/13 02:51:36;;;;;;;14.13;5.43;;;16.50;99.90;;;;;;5013089;28;20535;-68
2023/10/13 02:54:09;;;;;;;19.77;5.67;;;16.60;99.90;;;;;;5017046;28;20935;-69
2023/10/13 02:56:36;;;;;;;22.60;5.67;;;16.60;99.90;;;;;;5006025;28;20555;-69
2023/10/13 02:59:04;;;;;;;11.47;5.53;;;16.60;99.90;;;;;;5046411;28;20538;-69
2023/10/13 03:01:33;;;;;;;14.87;5.57;;;16.60;99.90;;;;;;5010145;28;20471;-68
2023/10/13 03:04:00;;;;;;;9.57;5.10;;;16.60;99.90;;;;;;5029604;28;21212;-68
2023/10/13 03:06:33;;;;;;;14.83;6.20;;;16.60;99.90;;;;;;5016496;28;20604;-68
2023/10/13 03:09:13;;;;;;;6.30;4.43;;;16.60;99.90;;;;;;5017157;28;20473;-70
2023/10/13 03:11:42;;;;;;;10.63;5.10;;;16.60;99.90;;;;;;5008311;28;20484;-69
2023/10/13 03:14:08;;;;;;;35.50;5.87;;;16.50;99.90;;;;;;5017683;28;20599;-68
2023/10/13 03:16:36;;;;;;;11.10;4.97;;;16.40;99.90;;;;;;5010159;28;20908;-70
2023/10/13 03:19:07;;;;;;;15.23;5.63;;;16.30;99.90;;;;;;5021720;28;20720;-69
2023/10/13 03:21:36;;;;;;;19.23;5.60;;;16.20;99.90;;;;;;5013424;28;20888;-68
2023/10/13 03:24:06;;;;;;;10.73;4.97;;;16.20;99.90;;;;;;5015512;28;20477;-69
2023/10/13 03:26:37;;;;;;;12.53;4.60;;;16.20;99.90;;;;;;5017335;28;20923;-69
2023/10/13 03:29:13;;;;;;;5.77;4.90;;;16.30;99.90;;;;;;5038127;28;21011;-69
2023/10/13 03:31:40;;;;;;;5.43;3.30;;;16.30;99.90;;;;;;5016395;28;20492;-68
2023/10/13 03:34:12;;;;;;;10.53;4.87;;;16.30;99.90;;;;;;5018647;28;20762;-68
2023/10/13 03:36:57;;;;;;;8.83;4.27;;;16.30;99.90;;;;;;5015946;28;21174;-68
2023/10/13 03:39:28;;;;;;;10.43;3.53;;;16.30;99.90;;;;;;5019772;28;20480;-69
2023/10/13 03:41:56;;;;;;;14.87;4.90;;;16.30;99.80;;;;;;5020441;28;20473;-69
2023/10/13 03:44:23;;;;;;;8.87;4.40;;;16.30;99.90;;;;;;5016414;28;20476;-69
2023/10/13 03:46:55;;;;;;;11.03;4.73;;;16.30;99.90;;;;;;5018939;28;20570;-71
2023/10/13 03:49:25;;;;;;;25.80;5.53;;;16.20;99.80;;;;;;5013086;28;20479;-68
2023/10/13 03:51:54;;;;;;;16.50;5.67;;;16.10;99.80;;;;;;5018254;28;21933;-70
2023/10/13 03:54:22;;;;;;;12.90;5.97;;;16.00;99.90;;;;;;5018358;28;21025;-70
2023/10/13 03:56:52;;;;;;;6.30;4.57;;;15.80;99.90;;;;;;5018600;28;20560;-70
2023/10/13 03:59:19;;;;;;;8.80;4.03;;;15.80;99.90;;;;;;5012007;28;20517;-69
2023/10/13 04:01:53;;;;;;;10.10;4.37;;;15.80;99.90;;;;;;5041151;28;20900;-70
2023/10/13 04:04:34;;;;;;;5.77;3.97;;;15.80;99.90;;;;;;5012101;28;20580;-69
2023/10/13 04:07:20;;;;;;;5.43;3.40;;;15.70;99.90;;;;;;5010497;28;20999;-68
2023/10/13 04:15:34;;;;;;;9.50;4.60;;;15.80;99.90;;;;;;5008510;28;20495;-69
2023/10/13 04:18:13;;;;;;;14.43;4.20;;;15.80;99.90;;;;;;5014132;28;20981;-69
2023/10/13 04:20:46;;;;;;;7.90;4.57;;;15.80;99.90;;;;;;5030447;28;20862;-69
2023/10/13 04:23:19;;;;;;;26.63;5.57;;;15.90;99.90;;;;;;5033067;28;20463;-68
2023/10/13 04:28:37;;;;;;;13.40;5.60;;;15.90;99.90;;;;;;5006073;28;20480;-69
2023/10/13 04:31:24;;;;;;;5.83;4.00;;;16.00;99.90;;;;;;4999623;28;20954;-70
2023/10/13 04:33:52;;;;;;;4.63;3.90;;;16.00;99.90;;;;;;5038499;28;20566;-70
2023/10/13 04:36:44;;;;;;;6.80;4.20;;;16.00;99.90;;;;;;5012106;28;20572;-70
2023/10/13 04:39:19;;;;;;;15.07;4.80;;;16.00;99.90;;;;;;5011777;28;21708;-67
2023/10/13 04:41:58;;;;;;;10.33;4.70;;;15.70;99.90;;;;;;5007124;28;20470;-69
2023/10/13 04:47:17;;;;;;;7.97;5.47;;;15.50;99.90;;;;;;5029148;28;20548;-68
2023/10/13 04:49:51;;;;;;;7.30;4.37;;;15.50;99.90;;;;;;5032654;28;20494;-69
2023/10/13 04:55:32;;;;;;;13.13;5.03;;;15.60;99.90;;;;;;5020902;28;21220;-70
2023/10/13 04:58:11;;;;;;;12.77;5.37;;;15.70;99.90;;;;;;5021900;28;20509;-69
2023/10/13 05:00:56;;;;;;;9.30;5.40;;;15.70;99.90;;;;;;5021562;28;20910;-70
2023/10/13 05:03:52;;;;;;;12.10;5.20;;;15.70;99.90;;;;;;5012339;28;20488;-69
2023/10/13 05:44:56;;;;;;;9.20;4.10;;;15.60;99.90;;;;;;5017588;28;20554;-70
2023/10/13 05:50:28;;;;;;;6.37;4.77;;;15.50;99.90;;;;;;5003408;28;21026;-70
2023/10/13 06:29:01;;;;;;;25.93;7.10;;;15.90;99.90;;;;;;5020357;28;20774;-66
2023/10/13 06:31:30;;;;;;;18.20;8.27;;;16.00;99.90;;;;;;5015623;28;20472;-67
2023/10/13 06:33:56;;;;;;;28.83;7.70;;;16.10;99.90;;;;;;5020265;28;20853;-66
2023/10/13 06:36:23;;;;;;;9.00;6.73;;;16.30;99.90;;;;;;5008859;28;20481;-66
2023/10/13 06:39:20;;;;;;;13.40;7.30;;;16.40;99.90;;;;;;5015703;28;20523;-66
2023/10/13 06:41:43;;;;;;;19.00;6.03;;;16.60;99.90;;;;;;5017171;28;20481;-65
2023/10/13 06:44:15;;;;;;;10.00;6.50;;;16.70;99.90;;;;;;5012023;28;20480;-66
2023/10/13 06:46:44;;;;;;;12.53;7.00;;;16.80;99.90;;;;;;5008580;28;20477;-66
2023/10/13 06:49:13;;;;;;;22.00;7.67;;;16.90;99.90;;;;;;5011662;28;20750;-67
2023/10/13 06:51:39;;;;;;;11.43;7.17;;;17.10;99.90;;;;;;5014594;28;20477;-66
2023/10/13 06:54:19;;;;;;;14.50;7.50;;;17.10;99.90;;;;;;5019201;28;20485;-66
2023/10/13 06:56:45;;;;;;;23.23;8.47;;;17.30;99.90;;;;;;5008134;28;20517;-66
2023/10/13 06:59:13;;;;;;;24.80;8.70;;;17.40;99.90;;;;;;5017559;28;20909;-66
2023/10/13 07:01:42;;;;;;;17.80;7.23;;;17.60;99.90;;;;;;5003060;28;20579;-66
2023/10/13 07:04:14;;;;;;;10.53;7.93;;;18.20;99.90;;;;;;5017109;28;20481;-68
2023/10/13 07:06:44;;;;;;;14.07;8.23;;;19.30;99.90;;;;;;5006101;28;20477;-66
2023/10/13 07:09:28;;;;;;;41.33;10.27;;;20.60;99.90;;;;;;5024132;28;20490;-67
2023/10/13 07:11:59;;;;;;;9.67;6.20;;;21.60;99.70;;;;;;5009491;28;20469;-67
2023/10/13 07:14:26;;;;;;;20.23;7.77;;;22.80;98.30;;;;;;5039374;28;20467;-67
2023/10/13 07:16:59;;;;;;;13.27;8.90;;;23.40;96.80;;;;;;5037512;28;20719;-68
2023/10/13 07:19:28;;;;;;;11.23;6.87;;;23.40;96.10;;;;;;5028761;28;20467;-68
2023/10/13 07:21:59;;;;;;;9.73;5.50;;;22.70;96.30;;;;;;5019666;28;20522;-67
2023/10/13 07:24:27;;;;;;;12.83;7.27;;;22.10;96.80;;;;;;5042124;28;20700;-68
2023/10/13 07:27:03;;;;;;;15.90;6.83;;;21.60;97.50;;;;;;5037402;28;20489;-68
2023/10/13 07:29:30;;;;;;;36.93;8.27;;;21.20;98.00;;;;;;5017543;28;20835;-68
2023/10/13 07:31:58;;;;;;;18.70;9.27;;;21.40;98.70;;;;;;5015354;28;20510;-69
2023/10/13 07:34:31;;;;;;;20.57;8.33;;;21.40;98.50;;;;;;5016568;28;20560;-69
2023/10/13 07:37:00;;;;;;;9.00;5.40;;;21.30;97.70;;;;;;5016399;28;20501;-68
2023/10/13 07:39:33;;;;;;;10.20;8.10;;;21.40;97.90;;;;;;5017598;28;20480;-67
2023/10/13 07:42:05;;;;;;;10.57;5.83;;;21.20;98.10;;;;;;5004656;28;20484;-67
2023/10/13 07:44:34;;;;;;;10.07;6.07;;;21.50;97.80;;;;;;5022516;28;20556;-67
2023/10/13 07:47:02;;;;;;;12.57;7.60;;;22.00;98.00;;;;;;5037869;28;20483;-69
2023/10/13 07:49:32;;;;;;;46.07;6.80;;;22.30;96.80;;;;;;5008329;28;20503;-67
2023/10/13 07:52:14;;;;;;;9.97;6.87;;;22.20;96.90;;;;;;5033281;28;20579;-67
2023/10/13 07:54:47;;;;;;;15.10;6.50;;;22.00;97.40;;;;;;5034158;28;20928;-68
2023/10/13 07:57:15;;;;;;;12.87;7.50;;;21.60;97.10;;;;;;5000111;28;20497;-68
2023/10/13 08:00:26;;;;;;;14.50;6.43;;;21.30;97.00;;;;;;5002607;28;20484;-67
2023/10/13 08:03:07;;;;;;;9.00;7.33;;;21.30;97.20;;;;;;4975632;28;20824;-67
2023/10/13 08:05:55;;;;;;;22.10;7.10;;;21.10;97.60;;;;;;4991268;28;20471;-67
2023/10/13 08:08:25;;;;;;;8.90;7.20;;;21.00;97.30;;;;;;5017897;28;20457;-67
2023/10/13 08:10:55;;;;;;;27.03;7.27;;;21.00;97.40;;;;;;5001773;28;20495;-67
2023/10/13 08:13:23;;;;;;;12.60;6.60;;;21.00;97.40;;;;;;5018296;28;20489;-65
2023/10/13 08:15:52;;;;;;;10.93;7.27;;;21.20;97.70;;;;;;5007078;28;20553;-68
2023/10/13 08:18:29;;;;;;;10.10;7.23;;;21.60;97.90;;;;;;4999843;28;20478;-67
2023/10/13 08:21:03;;;;;;;12.90;6.27;;;21.90;97.20;;;;;;4995427;28;21086;-68
2023/10/13 08:23:57;;;;;;;15.37;7.67;;;21.90;96.70;;;;;;4998692;28;20473;-67
2023/10/13 08:32:13;;;;;;;19.23;5.80;;;22.20;95.90;;;;;;4992400;28;20464;-71
2023/10/13 08:35:00;;;;;;;5.93;4.80;;;22.30;96.30;;;;;;4997967;28;20473;-71
2023/10/13 08:37:33;;;;;;;13.80;7.00;;;22.20;95.50;;;;;;5005430;28;20538;-69
2023/10/13 08:42:52;;;;;;;9.00;7.10;;;22.30;95.70;;;;;;5002570;28;21044;-68
2023/10/13 08:45:53;;;;;;;18.70;6.90;;;22.30;95.40;;;;;;5003124;28;20471;-71
2023/10/13 08:48:14;;;;;;;7.37;6.47;;;22.40;95.70;;;;;;4995112;28;20841;-71
2023/10/13 08:50:52;;;;;;;7.27;6.20;;;22.50;95.20;;;;;;4995800;28;20984;-70
2023/10/13 08:53:27;;;;;;;8.03;5.20;;;22.60;95.10;;;;;;4991798;28;21108;-68
2023/10/13 08:56:05;;;;;;;11.07;7.43;;;22.70;95.60;;;;;;5003873;28;20472;-70
2023/10/13 09:01:34;;;;;;;9.20;6.27;;;22.70;94.30;;;;;;4989163;28;20516;-70
2023/10/13 09:06:46;;;;;;;15.83;7.13;;;;;;;;;;4974026;28;20474;-70
2023/10/13 09:09:34;;;;;;;8.03;5.47;;;23.00;94.40;;;;;;4975259;28;20474;-69
2023/10/13 09:12:07;;;;;;;10.00;7.10;;;22.90;93.30;;;;;;4981178;28;20486;-69
2023/10/13 09:14:38;;;;;;;7.77;4.70;;;23.00;93.20;;;;;;4990415;28;20476;-68
2023/10/13 09:17:11;;;;;;;13.43;5.30;;;23.20;93.50;;;;;;5005757;28;20504;-69
2023/10/13 09:19:49;;;;;;;31.37;6.40;;;23.20;92.90;;;;;;4997516;28;20447;-69
2023/10/13 09:22:27;;;;;;;18.23;7.17;;;23.20;93.20;;;;;;4987700;28;20529;-67
2023/10/13 09:25:02;;;;;;;8.13;5.17;;;23.30;93.30;;;;;;4993978;28;20500;-69
2023/10/13 09:27:32;;;;;;;15.30;6.83;;;23.40;93.60;;;;;;5006839;28;20476;-67
2023/10/13 09:30:09;;;;;;;18.93;6.90;;;23.50;93.10;;;;;;4999363;28;20756;-68
2023/10/13 09:32:45;;;;;;;10.93;5.37;;;23.50;93.20;;;;;;5005622;28;20470;-70
2023/10/13 09:35:18;;;;;;;11.70;6.60;;;23.50;92.70;;;;;;5021957;28;20445;-68
2023/10/13 09:37:46;;;;;;;12.17;6.53;;;23.60;92.90;;;;;;4999621;28;20513;-66
2023/10/13 09:40:34;;;;;;;21.20;6.73;;;23.70;93.30;;;;;;5018196;28;20484;-67
2023/10/13 09:43:06;;;;;;;15.53;5.73;;;23.70;92.60;;;;;;4995597;28;20980;-66
2023/10/13 09:45:36;;;;;;;9.33;5.70;;;23.80;92.80;;;;;;4994502;28;20472;-68
2023/10/13 09:48:06;;;;;;;19.43;6.37;;;23.80;92.70;;;;;;5018826;28;20462;-67
2023/10/13 09:50:40;;;;;;;18.03;6.93;;;24.00;92.70;;;;;;4998287;28;20444;-65
2023/10/13 09:53:10;;;;;;;18.33;6.80;;;24.30;92.40;;;;;;5004574;28;20493;-67
2023/10/13 09:55:44;;;;;;;16.83;5.97;;;24.40;92.10;;;;;;5003173;28;20575;-67
2023/10/13 09:58:13;;;;;;;24.73;5.47;;;24.50;91.90;;;;;;4997752;28;21000;-67
2023/10/13 10:00:57;;;;;;;14.80;4.70;;;24.50;91.80;;;;;;5001340;28;20440;-67
2023/10/13 10:03:42;;;;;;;4.47;3.90;;;24.80;92.00;;;;;;5011745;28;20584;-66
2023/10/13 10:06:14;;;;;;;7.40;4.57;;;24.90;91.90;;;;;;5002829;28;20467;-66
2023/10/13 10:08:48;;;;;;;15.30;6.23;;;24.80;90.70;;;;;;4996390;28;20462;-66
2023/10/13 10:11:34;;;;;;;5.90;4.93;;;24.60;90.30;;;;;;5006928;28;20450;-65
2023/10/13 10:14:09;;;;;;;23.57;7.43;;;24.80;91.20;;;;;;4993523;28;20548;-65
2023/10/13 10:16:41;;;;;;;12.07;5.47;;;;;;;;;;4990486;28;20550;-65
2023/10/13 10:19:09;;;;;;;15.37;5.17;;;25.30;90.00;;;;;;5001598;28;20530;-67
2023/10/13 10:21:36;;;;;;;13.43;4.90;;;25.60;90.30;;;;;;5001585;28;20459;-66
2023/10/13 10:24:14;;;;;;;14.37;5.30;;;25.70;88.90;;;;;;4998052;28;20534;-66
2023/10/13 10:26:52;;;;;;;16.13;4.97;;;25.80;89.60;;;;;;5003865;28;20552;-66
2023/10/13 10:29:19;;;;;;;10.60;5.70;;;25.90;90.10;;;;;;4995184;28;21227;-66
2023/10/13 10:31:47;;;;;;;8.80;5.73;;;25.90;88.30;;;;;;5005607;28;20834;-66
2023/10/13 10:34:18;;;;;;;7.47;5.40;;;25.60;87.20;;;;;;5002725;28;20485;-65
2023/10/13 10:36:48;;;;;;;5.90;5.13;;;25.20;86.30;;;;;;5010593;28;20491;-67
2023/10/13 10:39:17;;;;;;;7.87;5.93;;;25.20;87.10;;;;;;5030398;28;20529;-64
2023/10/13 10:41:51;;;;;;;39.17;6.27;;;25.20;88.20;;;;;;5018952;28;20555;-65
2023/10/13 10:44:33;;;;;;;9.83;6.43;;;25.30;88.00;;;;;;5002051;28;21049;-65
2023/10/13 10:47:10;;;;;;;13.30;5.53;;;25.40;86.90;;;;;;5012409;28;20558;-65
2023/10/13 10:49:39;;;;;;;10.67;5.07;;;25.70;87.00;;;;;;5014555;28;20454;-65
2023/10/13 10:52:17;;;;;;;10.90;5.60;;;25.70;87.70;;;;;;5017735;28;21061;-66
2023/10/13 10:54:51;;;;;;;7.50;5.73;;;25.80;88.20;;;;;;5010343;28;20473;-65
2023/10/13 10:57:18;;;;;;;7.27;3.90;;;25.70;86.90;;;;;;5009245;28;20755;-65
2023/10/13 10:59:47;;;;;;;9.50;5.67;;;25.60;86.00;;;;;;5014705;28;20456;-65
2023/10/13 11:02:25;;;;;;;16.53;5.00;;;25.60;86.20;;;;;;5015190;28;20831;-66
2023/10/13 11:04:53;;;;;;;6.97;4.97;;;25.50;86.60;;;;;;5005039;28;20465;-65
2023/10/13 11:07:24;;;;;;;7.13;5.40;;;25.50;87.30;;;;;;5020498;28;20492;-66
2023/10/13 11:09:52;;;;;;;17.73;5.73;;;25.40;87.10;;;;;;5006113;28;20598;-66
2023/10/13 11:12:25;;;;;;;8.03;5.87;;;25.40;86.90;;;;;;5007927;28;20466;-65
2023/10/13 11:15:12;;;;;;;12.50;6.10;;;25.50;87.00;;;;;;5015884;28;20845;-66
2023/10/13 11:17:44;;;;;;;9.50;6.37;;;25.50;87.00;;;;;;5008631;28;20530;-66
2023/10/13 11:20:16;;;;;;;7.93;5.57;;;25.30;85.10;;;;;;5017920;28;20481;-66
2023/10/13 11:22:47;;;;;;;10.50;5.53;;;;;;;;;;5012049;28;21208;-65
2023/10/13 11:25:23;;;;;;;6.87;5.50;;;25.30;85.00;;;;;;5015448;28;20485;-67
2023/10/13 11:27:56;;;;;;;16.23;5.67;;;25.30;85.40;;;;;;5006662;28;20534;-66
2023/10/13 11:30:40;;;;;;;4.67;4.23;;;25.40;85.10;;;;;;5003442;28;20455;-67
2023/10/13 11:33:08;;;;;;;12.53;5.60;;;25.50;85.40;;;;;;5013113;28;21193;-66
2023/10/13 11:35:55;;;;;;;11.50;4.50;;;25.70;85.40;;;;;;5015988;28;20506;-66
2023/10/13 11:38:26;;;;;;;11.40;5.27;;;25.70;85.40;;;;;;5003500;28;20485;-66
2023/10/13 11:41:11;;;;;;;7.53;4.23;;;25.80;84.80;;;;;;5018549;28;20463;-67
2023/10/13 11:43:52;;;;;;;31.47;5.67;;;25.90;84.30;;;;;;5007296;28;21043;-67
2023/10/13 11:49:17;;;;;;;10.50;5.30;;;26.20;83.70;;;;;;4993214;28;20612;-65
2023/10/13 11:51:45;;;;;;;7.57;4.47;;;26.30;83.10;;;;;;5014053;28;20458;-65
2023/10/13 11:54:13;;;;;;;6.83;4.27;;;26.40;82.10;;;;;;5016800;28;20803;-66
2023/10/13 11:56:39;;;;;;;18.53;4.47;;;26.40;81.70;;;;;;5013266;28;20494;-67
2023/10/13 11:59:15;;;;;;;11.03;5.97;;;26.50;81.80;;;;;;5019027;28;20573;-66
2023/10/13 12:04:33;;;;;;;15.23;4.90;;;26.50;80.10;;;;;;5012948;28;20558;-66
2023/10/13 12:07:14;;;;;;;10.63;5.30;;;26.70;81.10;;;;;;5009642;28;20505;-69
2023/10/13 12:09:52;;;;;;;5.30;3.90;;;26.70;79.70;;;;;;4994307;28;20488;-68
2023/10/13 12:12:19;;;;;;;8.47;4.87;;;26.70;79.40;;;;;;5015037;28;20473;-66
2023/10/13 12:14:55;;;;;;;17.70;5.27;;;26.60;79.30;;;;;;5010401;28;20790;-70
2023/10/13 12:17:27;;;;;;;15.00;5.13;;;26.70;79.20;;;;;;5012220;28;20869;-68
2023/10/13 12:19:54;;;;;;;5.97;3.27;;;26.60;78.90;;;;;;5016120;28;20847;-70
2023/10/13 12:22:28;;;;;;;5.07;3.73;;;26.60;78.50;;;;;;4996810;28;20478;-69
2023/10/13 12:24:55;;;;;;;55.00;5.77;;;26.60;77.90;;;;;;5018929;28;20587;-69
2023/10/13 12:27:26;;;;;;;5.90;5.07;;;26.70;79.50;;;;;;5016586;28;20462;-71
2023/10/13 12:29:56;;;;;;;6.67;3.60;;;26.60;78.50;;;;;;5012339;28;20506;-70
2023/10/13 12:32:25;;;;;;;13.67;4.20;;;26.80;79.10;;;;;;5009248;28;20496;-69
2023/10/13 12:35:00;;;;;;;11.40;4.60;;;26.70;75.80;;;;;;5016818;28;20464;-70
2023/10/13 12:37:49;;;;;;;7.70;4.23;;;26.70;76.60;;;;;;5016506;28;21216;-69
2023/10/13 12:51:40;;;;;;;9.00;3.50;;;27.60;78.70;;;;;;5000218;28;20491;-67
2023/10/13 12:54:14;;;;;;;7.43;4.93;;;27.40;73.40;;;;;;5017975;28;20451;-66
2023/10/13 12:56:42;;;;;;;9.67;4.90;;;27.40;74.60;;;;;;5010383;28;20524;-67
2023/10/13 12:59:13;;;;;;;4.33;3.07;;;27.50;73.60;;;;;;5005140;28;20484;-67
2023/10/13 13:01:42;;;;;;;18.53;3.90;;;27.70;72.60;;;;;;5017306;28;20463;-67
2023/10/13 13:04:18;;;;;;;11.53;4.73;;;27.90;72.90;;;;;;5000796;28;20455;-66
2023/10/13 13:06:45;;;;;;;6.00;4.60;;;27.90;70.40;;;;;;5030117;28;20456;-65
2023/10/13 13:09:12;;;;;;;5.50;3.53;;;28.10;70.10;;;;;;5010124;28;20483;-69
2023/10/13 13:11:39;;;;;;;10.50;3.33;;;28.20;71.20;;;;;;5008763;28;20846;-67
2023/10/13 13:14:08;;;;;;;15.57;3.20;;;28.20;70.30;;;;;;5026271;28;20542;-66
2023/10/13 13:16:38;;;;;;;8.93;4.50;;;28.20;69.30;;;;;;5010899;28;20480;-67
2023/10/13 13:19:10;;;;;;;5.53;3.10;;;28.00;69.20;;;;;;5003999;28;20443;-67
2023/10/13 13:21:39;;;;;;;10.60;4.23;;;28.10;69.20;;;;;;5019017;28;20924;-67
2023/10/13 13:24:10;;;;;;;7.93;4.10;;;28.20;71.20;;;;;;5002150;28;20442;-69
2023/10/13 13:26:40;;;;;;;7.80;3.63;;;28.30;70.30;;;;;;5010329;28;20473;-68
2023/10/13 13:29:10;;;;;;;20.67;4.43;;;28.20;67.90;;;;;;5027612;28;20472;-67
2023/10/13 13:31:41;;;;;;;25.87;4.80;;;28.50;70.60;;;;;;5010085;28;20998;-66
2023/10/13 13:34:10;;;;;;;13.90;4.10;;;28.50;69.30;;;;;;5027876;28;20470;-67
2023/10/13 13:36:37;;;;;;;5.67;3.97;;;28.50;68.40;;;;;;5005251;28;20485;-66
2023/10/13 13:39:06;;;;;;;4.73;3.37;;;28.30;67.30;;;;;;5020415;28;21297;-66
2023/10/13 13:41:34;;;;;;;12.80;4.10;;;28.20;66.30;;;;;;5004058;28;20545;-66
2023/10/13 13:44:13;;;;;;;7.30;3.73;;;28.10;65.00;;;;;;5023947;28;21167;-66
2023/10/13 13:46:42;;;;;;;6.50;3.37;;;28.20;66.10;;;;;;4999835;28;20476;-66
2023/10/13 13:49:17;;;;;;;12.10;3.73;;;28.40;67.20;;;;;;5015658;28;20480;-67
2023/10/13 13:51:51;;;;;;;3.93;2.63;;;28.50;68.60;;;;;;5007306;28;20458;-67
2023/10/13 13:54:20;;;;;;;35.50;4.83;;;28.60;67.10;;;;;;5014433;28;20470;-66
2023/10/13 13:56:47;;;;;;;6.00;3.03;;;28.60;67.10;;;;;;5010640;28;20461;-66
2023/10/13 13:59:19;;;;;;;12.07;3.57;;;28.50;65.10;;;;;;5017216;28;20495;-67
2023/10/13 14:01:47;;;;;;;14.90;4.00;;;28.30;65.00;;;;;;5016441;28;20590;-66
2023/10/13 14:04:17;;;;;;;2.90;2.20;;;28.40;65.50;;;;;;5019571;28;20540;-67
2023/10/13 14:06:44;;;;;;;4.87;2.67;;;28.50;64.80;;;;;;5018161;28;20928;-65
2023/10/13 14:09:15;;;;;;;11.93;3.60;;;28.40;64.40;;;;;;5017199;28;20793;-65
2023/10/13 14:14:33;;;;;;;9.47;3.40;;;28.50;65.10;;;;;;5018739;28;20466;-68
2023/10/13 14:17:09;;;;;;;7.20;3.97;;;28.40;64.50;;;;;;5017542;28;20485;-66
2023/10/13 14:19:40;;;;;;;3.83;3.30;;;28.40;65.10;;;;;;5017797;28;20580;-67
2023/10/13 14:22:07;;;;;;;20.37;4.57;;;28.30;65.40;;;;;;5008716;28;20473;-66
2023/10/13 14:24:43;;;;;;;10.07;4.23;;;28.30;64.50;;;;;;5028835;28;20583;-67
2023/10/13 14:27:17;;;;;;;5.73;3.77;;;28.50;64.70;;;;;;5006277;28;20523;-65
2023/10/13 14:29:44;;;;;;;16.13;4.00;;;28.40;63.50;;;;;;4998805;28;21111;-67
2023/10/13 14:32:13;;;;;;;10.10;3.53;;;28.40;63.40;;;;;;4988238;28;20500;-68
2023/10/13 14:34:40;;;;;;;5.03;4.53;;;28.40;64.60;;;;;;4991840;28;20936;-67
2023/10/13 14:37:08;;;;;;;15.50;3.20;;;28.50;64.90;;;;;;5023640;28;21574;-68
2023/10/13 14:39:36;;;;;;;6.63;3.63;;;28.60;66.50;;;;;;5001468;28;20520;-67
2023/10/13 14:42:05;;;;;;;6.43;3.60;;;28.50;65.10;;;;;;4986191;28;20480;-67
2023/10/13 14:44:34;;;;;;;7.60;3.20;;;28.50;66.00;;;;;;4996302;28;20473;-67
2023/10/13 14:47:01;;;;;;;6.50;3.33;;;28.60;66.70;;;;;;5015454;28;20483;-66
2023/10/13 14:49:28;;;;;;;47.83;6.50;;;28.40;66.20;;;;;;4992508;28;20481;-67
2023/10/13 14:51:55;;;;;;;4.90;3.10;;;28.40;66.60;;;;;;4995002;28;20490;-66
2023/10/13 14:54:32;;;;;;;19.40;3.60;;;28.10;65.00;;;;;;5000876;28;21669;-67
2023/10/13 14:57:00;;;;;;;16.03;4.10;;;28.20;65.50;;;;;;5014351;28;21017;-66
2023/10/13 14:59:32;;;;;;;5.13;3.77;;;28.30;66.30;;;;;;5014755;28;20479;-67
2023/10/13 15:02:02;;;;;;;7.50;3.70;;;28.20;66.00;;;;;;5012944;28;20481;-67
2023/10/13 15:04:32;;;;;;;3.50;2.50;;;28.10;64.70;;;;;;5010576;28;20722;-65
2023/10/13 15:07:01;;;;;;;8.33;3.63;;;27.90;66.00;;;;;;5009964;28;20479;-66
2023/10/13 15:09:28;;;;;;;6.33;3.13;;;27.90;67.40;;;;;;5010783;28;20458;-70
2023/10/13 15:11:55;;;;;;;4.80;2.97;;;27.70;66.30;;;;;;4987761;28;21086;-67
2023/10/13 15:14:23;;;;;;;5.43;3.00;;;27.60;65.90;;;;;;5018442;28;20764;-66